Virgil, KS (66870)

1:12 AM CDT on August 22, 2014 (GMT -0500)
Toronto, KS | Change Station
CLOSE
Current Station
Personal Weather Station
Location: Toronto, KS
Elevation: 971 ft
Nearby Weather Stations

Elev 971 ft 37.80 °N, 95.95 °W | Updated 60 seconds ago

Clear
Clear
82.9 °F
Feels Like 89 °F
N
1.0
Wind Variable Wind from SSE
Gusts 1.0 mph

Today
High -- | Low -- °F
--% Chance of Precip.
Yesterday
High -- | Low -- °F
Precip. -- in
6:45 AM 8:07 PM
Waning Crescent, 10% visible
Pressure 29.88 in
Visibility 10.0 miles
Clouds Clear
Heat Index 89 °F
Dew Point 73 °F
Humidity 72%
Rainfall 0.00 in
Snow Depth Not available.
UV 0 out of 12
Pollen 11.10 out of 12
Air Quality Not available.
Flu Activity Not available.
METAR KEMP 220553Z AUTO 18014KT 10SM CLR 27/22 A2992 RMK AO2 SLP117 T02720222 10333 20272 403610233 50002

More Conditions Fewer Conditions

Pressure 29.88 in
Visibility 10.0 miles
Clouds Clear
Heat Index 89 °F
Dew Point 73 °F
Humidity 72%
Rainfall 0.00 in
Snow Depth Not available.
UV 0 out of 12
Pollen 11.10 out of 12
Air Quality Not available.
Flu Activity Not available.
METAR KEMP 220553Z AUTO 18014KT 10SM CLR 27/22 A2992 RMK AO2 SLP117 T02720222 10333 20272 403610233 50002

More Conditions Fewer Conditions

10-Day Weather Forecast

Almanac

Astronomy

Aug. 22, 2014 Rise Set
Actual Time 6:45 AM CDT 8:07 PM CDT
Civil Twilight 6:18 AM CDT 8:35 PM CDT
Nautical Twilight 5:45 AM CDT 9:08 PM CDT
Astronomical Twilight 5:10 AM CDT 9:42 PM CDT
Moon 4:10 AM CDT 6:15 PM CDT
Length of Visible Light 14h 17m
Length of Day
13h 22m
Tomorrow will be 2m 14s shorter.
Waning Crescent, 10% of the Moon is Illuminated
Today
Waning Crescent
Aug 25
New
Sep 2
First Quarter
Sep 8
Full
Sep 15
Last Quarter

Today's Extremes

State Highs State Lows

Community

WunderPhotos

Upload Photos

1,746,131 photos uploaded!

Nearby

Snow Depth

Station Depth Elevation
No new snow has been reported.

Earthquake Activity

City Distance Mag. Time & Date
Medford, Oklahoma 122 miles 3.4 10:59 AM CDT
2014-08-17
Perry, Oklahoma 128 miles 3.0 8:43 AM CDT
2014-08-17
Medford, Oklahoma 122 miles 2.7 2:28 AM CDT
2014-08-17
Medford, Oklahoma 121 miles 3.5 1:31 AM CDT
2014-08-17
Minimum magnitude displayed is 2.5.

Coastal Water Temperatures

Place Temperature
No Stations Reporting

Nearby Weather Stations